createdAt,value
2023-02-15T00:00:15.619Z,45.35
2023-02-15T00:08:20.975Z,43.60
2023-02-15T00:16:29.080Z,56.33
2023-02-15T00:24:34.449Z,44.10
2023-02-15T00:32:42.489Z,43.60
2023-02-15T00:40:48.459Z,43.92
2023-02-15T00:48:56.702Z,41.25
2023-02-15T00:57:02.033Z,41.67
2023-02-15T01:05:10.437Z,42.10
2023-02-15T01:13:16.396Z,43.67
2023-02-15T01:21:26.466Z,40.67
2023-02-15T01:29:32.004Z,41.45
2023-02-15T01:37:40.561Z,36.55
2023-02-15T01:45:47.574Z,38.03
2023-02-15T01:54:01.333Z,36.50
2023-02-15T02:10:18.806Z,36.97
2023-02-15T02:18:39.896Z,40.15
2023-02-15T02:27:20.043Z,44.70
2023-02-15T02:35:34.744Z,45.13
2023-02-15T02:43:48.613Z,42.03
2023-02-15T02:52:05.302Z,41.63
2023-02-15T03:00:13.631Z,41.50
2023-02-15T03:08:28.992Z,39.30
2023-02-15T03:16:35.180Z,37.00
2023-02-15T03:24:48.034Z,33.67
2023-02-15T03:41:15.135Z,34.47
2023-02-15T03:49:25.775Z,34.65
2023-02-15T03:57:46.122Z,35.45
2023-02-15T04:05:51.776Z,37.00
2023-02-15T04:14:20.207Z,35.08
2023-02-15T04:22:37.979Z,35.08
2023-02-15T04:30:45.937Z,26.67
2023-02-15T04:38:51.280Z,32.05
2023-02-15T04:46:59.277Z,33.90
2023-02-15T04:55:05.238Z,32.45
2023-02-15T05:03:13.287Z,31.83
2023-02-15T05:11:18.668Z,29.80
2023-02-15T05:19:27.099Z,30.15
2023-02-15T05:27:44.757Z,30.55
2023-02-15T05:35:52.754Z,29.92
2023-02-15T05:43:59.905Z,29.20
2023-02-15T05:52:08.137Z,29.75
2023-02-15T06:00:15.605Z,30.42
2023-02-15T06:08:23.701Z,30.92
2023-02-15T06:16:29.056Z,30.60
2023-02-15T06:24:37.236Z,34.65
2023-02-15T06:32:42.641Z,39.08
2023-02-15T06:40:50.754Z,39.47
2023-02-15T06:48:56.256Z,38.03
2023-02-15T06:57:04.271Z,40.83
2023-02-15T07:05:09.965Z,39.60
2023-02-15T07:13:18.063Z,40.05
2023-02-15T07:21:23.460Z,44.47
2023-02-15T07:29:31.507Z,42.33
2023-02-15T07:37:36.977Z,34.50
2023-02-15T07:45:44.861Z,33.92
2023-02-15T07:53:52.571Z,32.38
2023-02-15T08:02:00.643Z,35.40
2023-02-15T08:10:06.070Z,33.50
2023-02-15T08:18:14.099Z,36.15
2023-02-15T08:26:20.461Z,40.80
2023-02-15T08:34:28.607Z,43.88
2023-02-15T08:42:33.965Z,37.53
2023-02-15T08:50:41.829Z,37.08
2023-02-15T08:58:47.359Z,39.28
2023-02-15T09:06:56.283Z,41.05
2023-02-15T09:15:01.684Z,31.15
2023-02-15T09:23:16.202Z,22.50
2023-02-15T09:31:29.884Z,20.25
2023-02-15T09:39:49.084Z,22.48
2023-02-15T09:48:24.030Z,20.58
2023-02-15T09:56:38.668Z,19.67
2023-02-15T10:04:55.678Z,17.40
2023-02-15T10:13:16.451Z,18.65
2023-02-15T10:21:40.504Z,17.30
2023-02-15T10:29:59.716Z,13.65
2023-02-15T10:38:17.118Z,11.98
2023-02-15T10:46:45.673Z,13.25
2023-02-15T10:54:57.937Z,15.00
2023-02-15T11:03:26.072Z,13.23
2023-02-15T11:11:36.582Z,14.00
2023-02-15T11:19:51.962Z,14.73
2023-02-15T11:27:58.392Z,15.38
2023-02-15T11:36:13.292Z,16.33
2023-02-15T11:44:23.855Z,15.10
2023-02-15T11:52:31.968Z,14.98
2023-02-15T12:00:41.567Z,14.40
2023-02-15T12:08:56.857Z,15.30
2023-02-15T12:17:02.176Z,16.05
2023-02-15T12:25:26.536Z,13.65
2023-02-15T12:33:35.568Z,13.00
2023-02-15T12:41:49.660Z,11.65
2023-02-15T12:50:17.975Z,11.73
2023-02-15T12:58:27.771Z,12.52
2023-02-15T13:06:35.997Z,11.55
2023-02-15T13:14:49.412Z,11.30
2023-02-15T13:22:59.262Z,11.43
2023-02-15T13:31:07.706Z,12.73
2023-02-15T13:39:23.527Z,13.15
2023-02-15T13:47:38.553Z,12.60
2023-02-15T13:55:51.816Z,13.40
2023-02-15T14:04:23.253Z,15.87
2023-02-15T14:12:44.698Z,13.88
2023-02-15T14:21:05.701Z,14.35
2023-02-15T14:29:20.511Z,15.32
2023-02-15T14:37:37.302Z,15.30
2023-02-15T14:45:50.558Z,15.20
2023-02-15T14:53:58.536Z,16.33
2023-02-15T15:02:16.279Z,13.60
2023-02-15T15:10:42.332Z,15.40
2023-02-15T15:18:50.289Z,14.98
2023-02-15T15:27:33.376Z,16.10
2023-02-15T15:35:40.988Z,29.08
2023-02-15T15:44:20.860Z,27.80
2023-02-15T15:52:27.217Z,22.13
2023-02-15T16:00:40.849Z,19.02
2023-02-15T16:08:46.286Z,17.30
2023-02-15T16:16:58.781Z,19.17
2023-02-15T16:25:21.677Z,20.13
2023-02-15T16:33:40.224Z,24.58
2023-02-15T16:41:47.208Z,27.27
2023-02-15T16:49:57.751Z,21.58
2023-02-15T16:58:06.584Z,22.50
2023-02-15T17:06:26.844Z,27.15
2023-02-15T17:14:34.086Z,27.27
2023-02-15T17:22:44.335Z,27.98
2023-02-15T17:30:50.622Z,29.05
2023-02-15T17:39:12.313Z,32.15
2023-02-15T17:47:22.813Z,31.05
2023-02-15T17:55:43.264Z,32.05
2023-02-15T18:04:02.796Z,35.15
2023-02-15T18:12:23.750Z,37.83
2023-02-15T18:20:36.236Z,42.72
2023-02-15T18:28:44.538Z,35.13
2023-02-15T18:36:50.155Z,33.67
2023-02-15T18:45:00.771Z,49.47
2023-02-15T18:53:10.232Z,43.35
2023-02-15T19:01:21.660Z,50.65
2023-02-15T19:09:29.589Z,47.40
2023-02-15T19:17:40.306Z,48.85
2023-02-15T19:25:45.962Z,65.43
2023-02-15T19:33:54.048Z,55.90
2023-02-15T19:41:59.609Z,48.17
2023-02-15T19:50:08.003Z,50.60
2023-02-15T19:58:15.895Z,50.90
2023-02-15T20:06:24.300Z,44.58
2023-02-15T20:14:30.325Z,53.78
2023-02-15T20:22:38.336Z,54.28
2023-02-15T20:30:44.268Z,55.35
2023-02-15T20:38:52.878Z,55.67
2023-02-15T20:47:02.728Z,59.50
2023-02-15T20:55:18.704Z,48.50
2023-02-15T21:03:31.628Z,45.75
2023-02-15T21:11:40.750Z,46.23
2023-02-15T21:19:46.573Z,55.28
2023-02-15T21:27:54.653Z,54.35
2023-02-15T21:36:00.969Z,50.85
2023-02-15T21:44:31.384Z,42.83
2023-02-15T21:52:36.921Z,41.85
2023-02-15T22:00:44.948Z,54.47
2023-02-15T22:08:50.816Z,56.20
2023-02-15T22:16:58.840Z,39.80
2023-02-15T22:25:04.937Z,39.83
2023-02-15T22:33:23.317Z,44.75
2023-02-15T22:41:32.844Z,38.67
2023-02-15T22:49:40.969Z,33.35
2023-02-15T22:57:47.345Z,30.38
2023-02-15T23:05:55.944Z,32.95
2023-02-15T23:14:03.141Z,32.25
2023-02-15T23:22:14.863Z,34.20
2023-02-15T23:30:20.667Z,39.15
2023-02-15T23:38:31.267Z,36.53
2023-02-15T23:46:42.341Z,34.10
2023-02-15T23:54:50.244Z,35.95
